Data for 07/19/2014

Time Sea-Level Adjusted Pressure Absolute Pressure Temperature Relative Humidity Dew Point   
(mb) (inHg) (mb) (inHg) (C) (F) (%) (C) (F)
00:05 1018 30.06 847 25.01 16.7 62.1 54 7.5 45.5
00:10 1018 30.06 847 25.01 16.7 62 50 6.2 43.2
00:15 1018 30.06 847 25.01 16.4 61.5 51 6.3 43.4
00:20 1018 30.06 847 25.01 16 60.9 51 6.1 43
00:25 1018 30.06 847 25.01 15.8 60.5 51 5.9 42.6
00:30 1018 30.06 847 25.01 15.8 60.5 50 5.6 42
00:35 1018 30.06 847 25.01 16.1 60.9 48 5.3 41.6
00:40 1018 30.06 847 25.01 16.3 61.4 48 5.3 41.5
00:45 1018 30.06 847 25.01 16.3 61.4 47 5.2 41.3
00:50 1018 30.06 847 25.01 16.2 61.1 49 5.4 41.8
00:55 1018 30.06 847 25.01 15.9 60.7 48 5.1 41.2
01:00 1018 30.06 847 25.01 15.9 60.7 55 6.9 44.5
01:05 1018 30.06 847 25.01 16.3 61.3 52 6.4 43.5
01:10 1018 30.06 847 25.01 15.9 60.7 51 5.9 42.6
01:15 1018 30.06 847 25.01 15.4 59.7 53 6 42.8
01:20 1018 30.06 847 25.01 15 59 53 5.7 42.2
01:25 1018 30.06 847 25.01 14.8 58.6 53 5.3 41.5
01:30 1018 30.06 847 25.01 14.8 58.6 53 5.5 41.8
01:35 1018 30.06 847 25.01 14.6 58.4 54 5.5 42
01:40 1018 30.06 847 25.01 14.5 58.2 55 5.6 42.1
01:45 1018 30.06 847 25.01 14.5 58.2 53 5.3 41.5
01:50 1018 30.06 847 25.01 14.6 58.3 52 5 41
01:55 1018 30.06 847 25.01 14.7 58.4 53 5.4 41.7
02:00 1018 30.06 847 25.01 14.5 58 55 5.5 42
02:05 1018 30.06 847 25.01 14.1 57.4 56 5.6 42.2
02:10 1018 30.06 847 25.01 13.7 56.7 57 5.5 41.9
02:15 1018 30.06 847 25.01 13.5 56.2 59 5.7 42.3
02:20 1018 30.06 847 25.01 13 55.5 61 5.7 42.3
02:25 1018 30.06 847 25.01 12.8 55 59 4.9 40.8
02:30 1018 30.06 847 25.01 13.2 55.8 55 4.5 40
02:35 1018 30.06 847 25.01 13.5 56.2 55 4.6 40.3
02:40 1018 30.06 847 25.01 13.6 56.4 54 4.5 40.1
02:45 1018 30.06 847 25.01 13.6 56.5 54 4.5 40.2
02:50 1018 30.06 847 25.01 13.6 56.4 54 4.5 40
02:55 1018 30.06 847 25.01 13.8 56.8 53 4.5 40.1
03:00 1018 30.06 847 25.01 13.7 56.6 53 4.3 39.7
03:05 1018 30.06 847 25.01 13.6 56.5 53 4.2 39.5
03:10 1018 30.06 847 25.01 13.8 56.9 52 4.3 39.8
03:15 1018 30.06 847 25.01 13.8 56.8 52 4.1 39.3
03:20 1018 30.06 847 25.01 14 57.1 52 4.3 39.8
03:25 1018 30.06 847 25.01 13.8 56.9 53 4.5 40.1
03:30 1018 30.06 847 25.01 13.6 56.5 53 4.3 39.8
03:35 1018 30.06 847 25.01 13.4 56.1 51 3.5 38.4
03:40 1018 30.06 847 25.01 13.8 56.8 49 3.4 38
03:45 1018 30.06 847 25.01 14.2 57.6 48 3.4 38.2
03:50 1018 30.06 847 25.01 14.3 57.7 50 4.2 39.5
03:55 1018 30.06 847 25.01 13.9 57.1 53 4.5 40.2
04:00 1018 30.06 847 25.01 13.5 56.3 53 4.3 39.7
04:05 1018 30.06 847 25.01 13.3 55.9 51 3.3 38
04:10 1018 30.06 847 25.01 13.8 56.9 48 3 37.5
04:15 1018 30.06 847 25.01 13.9 57.1 50 3.8 38.8
04:20 1018 30.06 847 25.01 13.5 56.3 52 4 39.2
04:25 1018 30.06 847 25.01 13.1 55.6 53 3.8 38.8
04:30 1018 30.06 847 25.01 13.2 55.7 52 3.7 38.6
04:35 1018 30.06 847 25.01 13.3 55.9 51 3.6 38.4
04:40 1018 30.06 847 25.01 13.2 55.7 53 3.9 39
04:45 1018 30.06 847 25.01 12.9 55.3 54 4 39.2
04:50 1018 30.06 847 25.01 12.8 55 55 4.1 39.4
04:55 1018 30.06 847 25.01 12.5 54.5 54 3.6 38.4
05:00 1018 30.06 847 25.01 13.3 55.9 47 2.4 36.3
05:05 1018 30.06 847 25.01 14.1 57.4 45 2.5 36.6
05:10 1018 30.06 847 25.01 14.2 57.6 46 3 37.3
05:15 1018 30.06 847 25.01 14 57.2 47 2.9 37.3
05:20 1018 30.06 847 25.01 14.2 57.5 45 2.5 36.5
05:25 1018 30.06 847 25.01 14.2 57.5 47 3 37.5
05:30 1018 30.06 847 25.01 13.9 57.1 49 3.4 38.1
05:35 1018 30.06 847 25.01 13.5 56.4 50 3.4 38.2
05:40 1018 30.06 847 25.01 13.2 55.8 52 3.7 38.7
05:45 1018 30.06 847 25.01 12.9 55.1 53 3.7 38.6
05:50 1018 30.06 847 25.01 13 55.3 51 3.1 37.6
05:55 1018 30.06 847 25.01 13.2 55.8 51 3.3 38
06:00 1018 30.06 847 25.01 13.4 56 50 3.2 37.8
06:05 1018 30.06 847 25.01 13.6 56.4 49 3.1 37.5
06:10 1018 30.06 847 25.01 13.8 56.9 49 3.3 38
06:15 1018 30.06 847 25.01 14 57.2 49 3.6 38.5
06:20 1018 30.06 847 25.01 14.2 57.5 50 4 39.3
06:25 1018 30.06 847 25.01 14.5 58.1 48 3.8 38.9
06:30 1018 30.06 847 25.01 15 59.1 48 4.2 39.5
06:35 1018 30.06 847 25.01 15.3 59.6 48 4.4 39.9
06:40 1018 30.06 847 25.01 15.5 59.9 48 4.8 40.6
06:45 1018 30.06 847 25.01 15.7 60.2 49 5.1 41.1
06:50 1018 30.06 847 25.01 15.7 60.2 51 5.5 42
06:55 1018 30.06 847 25.01 15.9 60.5 52 6.2 43.2
07:00 1018 30.06 847 25.01 16.1 61.1 51 6.1 43
07:05 1018 30.06 847 25.01 16.7 62.1 48 5.7 42.3
07:10 1018 30.06 847 25.01 17 62.6 47 5.7 42.2
07:15 1018 30.06 847 25.01 17 62.6 47 5.7 42.3
07:20 1018 30.06 847 25.01 17.2 62.9 46 5.6 42
07:25 1018 30.06 847 25.01 17.4 63.3 48 6.3 43.3
07:30 1018 30.06 847 25.01 17.6 63.6 47 6.1 43
07:35 1018 30.06 847 25.01 17.7 63.9 47 6.3 43.3
07:40 1018 30.06 847 25.01 18 64.3 48 6.9 44.5
07:45 1018 30.06 847 25.01 18.2 64.8 47 6.8 44.3
07:50 1018 30.06 847 25.01 18.7 65.7 44 6.5 43.7
07:55 1018 30.06 847 25.01 19.4 66.9 44 7 44.7
08:00 1018 30.06 847 25.01 19.8 67.7 44 7.4 45.4
08:05 1018 30.06 847 25.01 20.1 68.2 43 7.1 44.8
08:10 1018 30.06 847 25.01 20.5 68.9 34 4.2 39.5
08:15 1018 30.06 847 25.01 21 69.8 31 3.4 38.1
08:20 1018 30.06 847 25.01 21.1 70 29 2.8 37.1
08:25 1018 30.06 847 25.01 21.1 70 31 3.5 38.3
08:30 1018 30.06 847 25.01 21.5 70.7 30 3.2 37.8
08:35 1018 30.06 847 25.01 21.5 70.8 30 3.3 37.9
08:40 1018 30.06 847 25.01 21.6 70.8 30 3.2 37.8
08:45 1018 30.06 847 25.01 21.9 71.4 29 3.3 37.9
08:50 1018 30.06 847 25.01 22.1 71.7 30 4 39.1
08:55 1018 30.06 847 25.01 22.2 71.9 31 4.6 40.3
09:00 1018 30.06 847 25.01 22.1 71.8 33 5.4 41.8
09:05 1018 30.06 847 25.01 22 71.6 34 5.5 41.9
09:10 1018 30.06 847 25.01 22.1 71.7 33 5.3 41.5
09:15 1018 30.06 847 25.01 22 71.5 33 5 41
09:20 1018 30.06 847 25.01 22.1 71.7 33 5.4 41.8
09:25 1018 30.06 847 25.01 21.7 71 32 4.3 39.7
09:30 1018 30.06 847 25.01 21.7 71 32 4.3 39.8
09:35 1018 30.06 847 25.01 21.4 70.5 32 4.3 39.7
09:40 1018 30.06 847 25.01 22.2 72 31 4.3 39.8
09:45 1018 30.06 847 25.01 22.1 71.8 31 4.5 40
09:50 1018 30.06 847 25.01 22.8 73 31 5 40.9
09:55 1018 30.06 847 25.01 22.7 72.8 31 5 41.1
10:00 1018 30.06 847 25.01 22.1 71.8 30 3.8 38.9
10:05 1018 30.06 847 25.01 22.4 72.3 31 4.5 40.2
10:10 1018 30.06 847 25.01 22.4 72.3 30 4 39.3
10:15 1018 30.06 847 25.01 22.7 72.9 29 3.9 39
10:20 1018 30.06 847 25.01 23.4 74.2 26 3 37.5
10:25 1018 30.06 847 25.01 23.2 73.8 26 2.6 36.7
10:30 1018 30.06 847 25.01 23.2 73.7 24 1.5 34.6
10:35 1018 30.06 847 25.01 23.4 74.1 24 2.1 35.7
10:40 1018 30.06 847 25.01 23 73.5 25 2.4 36.3
10:45 1018 30.06 847 25.01 23.9 75 24 2.3 36.1
10:50 1018 30.06 847 25.01 24.5 76.2 24 2.9 37.2
10:55 1018 30.06 847 25.01 24.3 75.7 25 3 37.3
11:00 1018 30.06 847 25.01 24.5 76.2 23 2.3 36.1
11:05 1018 30.06 847 25.01 25.2 77.4 23 2.6 36.7
11:10 1018 30.06 847 25.01 25.4 77.7 22 2.6 36.6
11:15 1018 30.06 847 25.01 25.3 77.6 23 3.1 37.5
11:20 1017 30.03 847 25.01 24.7 76.4 24 2.9 37.1
11:25 1017 30.03 847 25.01 24.3 75.7 24 2.6 36.7
11:30 1017 30.03 847 25.01 25.6 78.1 22 2.5 36.4
11:35 1017 30.03 847 25.01 25.9 78.5 21 2.2 36
11:40 1017 30.03 846 24.98 26.1 78.9 22 2.8 37.1
11:45 1017 30.03 846 24.98 26.2 79.2 23 3.5 38.2
11:50 1017 30.03 846 24.98 26.6 79.8 21 3.1 37.5
11:55 1017 30.03 846 24.98 27.3 81.2 20 2.9 37.3
12:00 1017 30.03 846 24.98 27.6 81.7 20 3.2 37.8
12:05 1017 30.03 846 24.98 28.4 83.1 20 3.8 38.8
12:10 1017 30.03 846 24.98 28 82.5 20 3.2 37.7
12:15 1017 30.03 846 24.98 27.9 82.3 20 3.4 38
12:20 1017 30.03 846 24.98 28.5 83.3 20 3.9 39
12:25 1017 30.03 846 24.98 28.4 83.2 20 3.8 38.9
12:30 1017 30.03 846 24.98 28.5 83.3 19 3.3 37.9
12:35 1017 30.03 846 24.98 28.5 83.2 20 3.8 38.9
12:40 1017 30.03 846 24.98 28.9 83.9 20 4.2 39.5
12:45 1017 30.03 846 24.98 28.9 83.9 20 4.3 39.7
12:50 1017 30.03 846 24.98 28.9 84.1 20 4.1 39.3
12:55 1017 30.03 846 24.98 28.5 83.4 21 4.5 40.2
13:00 1016 30 846 24.98 28.4 83.1 22 4.7 40.5
13:05 1016 30 846 24.98 28.2 82.7 22 4.7 40.4
13:10 1016 30 846 24.98 27.6 81.7 22 4.2 39.6
13:15 1016 30 845 24.95 27.4 81.4 22 4.2 39.6
13:20 1016 30 845 24.95 28 82.5 22 4.4 39.9
13:25 1016 30 845 24.95 28.8 83.8 21 4.5 40.1
13:30 1016 30 845 24.95 29.2 84.5 20 4.3 39.7
13:35 1016 30 845 24.95 29.2 84.6 20 4.2 39.6
13:40 1016 30 845 24.95 28.7 83.6 21 4.6 40.2
13:45 1016 30 845 24.95 28.5 83.3 22 5 40.9
13:50 1016 30 845 24.95 29.1 84.4 20 4.5 40.2
13:55 1016 30 845 24.95 29.1 84.5 20 4.4 40
14:00 1016 30 845 24.95 30.1 86.2 19 4.6 40.3
14:05 1016 30 845 24.95 29.6 85.3 18 2.8 37
14:10 1016 30 845 24.95 29.6 85.4 15 1 33.7
14:15 1016 30 845 24.95 29.9 85.7 15 1.2 34.2
14:20 1015 29.97 845 24.95 29.9 85.9 17 2.8 37.1
14:25 1015 29.97 845 24.95 29.7 85.5 16 1.6 35
14:30 1015 29.97 845 24.95 30.1 86.2 15 1.4 34.4
14:35 1015 29.97 845 24.95 30.4 86.7 15 1.1 34
14:40 1015 29.97 845 24.95 30.5 86.8 15 1.6 34.9
14:45 1015 29.97 844 24.92 30.4 86.8 15 1.5 34.6
14:50 1015 29.97 844 24.92 29.9 85.7 16 1.4 34.5
14:55 1015 29.97 844 24.92 29.7 85.4 17 2.2 35.9
15:00 1015 29.97 844 24.92 29.9 85.9 16 1.3 34.4
15:05 1015 29.97 844 24.92 29.8 85.6 17 2.1 35.7
15:10 1015 29.97 844 24.92 29.5 85.2 18 2.7 36.8
15:15 1015 29.97 844 24.92 29.5 85 18 3.1 37.6
15:20 1015 29.97 844 24.92 29.5 85.1 17 2.1 35.8
15:25 1015 29.97 844 24.92 29.7 85.5 15 0.8 33.4
15:30 1015 29.97 844 24.92 30.2 86.3 15 1.3 34.3
15:35 1015 29.97 844 24.92 30.8 87.4 15 1.6 34.9
15:40 1015 29.97 844 24.92 30.9 87.7 14 1.1 33.9
15:45 1015 29.97 844 24.92 30.7 87.3 15 1.1 34
15:50 1015 29.97 844 24.92 30.9 87.7 14 0.5 32.9
15:55 1015 29.97 844 24.92 30.9 87.6 14 1 33.8
16:00 1015 29.97 844 24.92 30.8 87.4 14 0.7 33.3
16:05 1015 29.97 844 24.92 30.8 87.5 14 0.4 32.8
16:10 1015 29.97 844 24.92 30.7 87.3 15 1.1 34
16:15 1015 29.97 844 24.92 30.7 87.3 14 0.4 32.8
16:20 1015 29.97 844 24.92 30.6 87.1 15 1 33.9
16:25 1015 29.97 844 24.92 30.4 86.6 14 0.6 33.1
16:30 1015 29.97 844 24.92 30.2 86.4 14 0.6 33
16:35 1015 29.97 844 24.92 30.6 87.1 15 1.5 34.8
16:40 1015 29.97 844 24.92 30.5 86.9 15 1.1 34
16:45 1015 29.97 844 24.92 30.2 86.3 15 0.9 33.7
16:50 1015 29.97 844 24.92 30.2 86.3 16 1.5 34.7
16:55 1015 29.97 844 24.92 30.2 86.3 15 1 33.8
17:00 1015 29.97 844 24.92 30.2 86.4 15 1.5 34.7
17:05 1015 29.97 844 24.92 30.7 87.2 15 1.2 34.2
17:10 1015 29.97 844 24.92 30.5 86.9 15 1.6 34.8
17:15 1015 29.97 844 24.92 30.3 86.5 16 1.7 35
17:20 1015 29.97 844 24.92 29.9 85.9 17 2.2 35.9
17:25 1015 29.97 844 24.92 30.1 86.2 16 2.2 35.9
17:30 1015 29.97 844 24.92 30.2 86.3 17 3 37.4
17:35 1015 29.97 844 24.92 30.3 86.5 16 1.7 35.1
17:40 1015 29.97 844 24.92 30 86 17 2.4 36.4
17:45 1015 29.97 844 24.92 29.8 85.6 18 3.4 38.1
17:50 1015 29.97 844 24.92 29.5 85.2 19 3.5 38.3
17:55 1015 29.97 844 24.92 29.5 85.2 17 2.6 36.6
18:00 1015 29.97 844 24.92 29.7 85.4 17 2.5 36.5
18:05 1015 29.97 844 24.92 29.7 85.4 18 3.2 37.8
18:10 1015 29.97 844 24.92 29.6 85.2 19 3.9 39
18:15 1015 29.97 844 24.92 29.6 85.4 20 4.3 39.7
18:20 1015 29.97 844 24.92 29.3 84.8 21 4.8 40.7
18:25 1015 29.97 844 24.92 28.9 83.9 20 4 39.1
18:30 1015 29.97 844 24.92 28.6 83.4 21 4.6 40.3
18:35 1015 29.97 844 24.92 28.3 83 22 4.9 40.9
18:40 1015 29.97 844 24.92 28.2 82.7 23 5.2 41.3
18:45 1015 29.97 844 24.92 28 82.5 23 5.4 41.7
18:50 1015 29.97 844 24.92 27.8 82.1 24 5.6 42.1
18:55 1015 29.97 844 24.92 27.8 82 23 5.2 41.4
19:00 1015 29.97 844 24.92 27.7 81.8 24 5.4 41.6
19:05 1015 29.97 844 24.92 27.6 81.8 23 5 41
19:10 1015 29.97 844 24.92 27.5 81.4 23 4.9 40.9
19:15 1015 29.97 844 24.92 27.3 81.1 25 5.9 42.6
19:20 1015 29.97 844 24.92 27 80.6 26 5.9 42.7
19:25 1015 29.97 844 24.92 26.7 80.1 26 6.1 42.9
19:30 1015 29.97 844 24.92 26.5 79.6 28 6.5 43.8
19:35 1015 29.97 844 24.92 26.1 78.9 29 6.9 44.5
19:40 1015 29.97 844 24.92 25.8 78.4 29 6.9 44.4
19:45 1015 29.97 844 24.92 25.5 77.9 30 6.9 44.5
19:50 1015 29.97 844 24.92 25.3 77.6 30 6.9 44.4
19:55 1015 29.97 844 24.92 25.2 77.3 31 6.9 44.4
20:00 1015 29.97 844 24.92 24.9 76.7 31 7 44.6
20:05 1015 29.97 844 24.92 24.6 76.2 31 6.6 43.9
20:10 1015 29.97 844 24.92 24.3 75.8 32 6.7 44.1
20:15 1015 29.97 844 24.92 24.1 75.4 32 6.6 43.8
20:20 1015 29.97 845 24.95 23.8 74.9 32 6.5 43.8
20:25 1015 29.97 845 24.95 23.5 74.3 34 6.9 44.4
20:30 1015 29.97 845 24.95 22.9 73.1 36 7 44.6
20:35 1016 30 845 24.95 22.3 72.2 37 7 44.6
20:40 1016 30 845 24.95 21.9 71.3 38 7 44.5
20:45 1016 30 845 24.95 21.7 71 38 6.9 44.4
20:50 1016 30 845 24.95 21.4 70.5 38 6.5 43.7
20:55 1016 30 845 24.95 21.6 70.9 37 6.6 43.8
21:00 1016 30 845 24.95 21.8 71.3 34 5.4 41.7
21:05 1016 30 845 24.95 22.1 71.9 34 5.7 42.2
21:10 1016 30 845 24.95 21.7 71.1 34 5.2 41.4
21:15 1016 30 845 24.95 21.9 71.4 33 5.3 41.5
21:20 1016 30 845 24.95 21.9 71.5 32 4.9 40.7
21:25 1016 30 845 24.95 22.2 71.9 31 4.7 40.4
21:30 1016 30 845 24.95 22.1 71.7 33 5.1 41.2
21:35 1016 30 845 24.95 21.6 71 37 6.5 43.6
21:40 1016 30 845 24.95 21.3 70.3 35 5.4 41.7
21:45 1016 30 845 24.95 21 69.9 37 5.9 42.5
21:50 1016 30 845 24.95 20.6 69.1 39 6.2 43.1
21:55 1016 30 845 24.95 20.3 68.5 39 6 42.7
22:00 1016 30 845 24.95 20.1 68.1 41 6.5 43.8
22:05 1016 30 845 24.95 19.7 67.4 43 7 44.5
22:10 1016 30 845 24.95 19.2 66.5 42 6.1 43
22:15 1016 30 845 24.95 19.3 66.7 42 6 42.9
22:20 1016 30 845 24.95 19.3 66.8 41 6 42.7
22:25 1016 30 845 24.95 19.5 67.1 40 5.8 42.4
22:30 1016 30 845 24.95 19.7 67.5 39 5.4 41.7
22:35 1016 30 845 24.95 19.8 67.6 38 5.2 41.4
22:40 1016 30 845 24.95 19.7 67.4 39 5.5 42
22:45 1016 30 845 24.95 19.4 66.8 40 5.6 42
22:50 1016 30 845 24.95 19.3 66.7 40 5.6 42.1
22:55 1016 30 845 24.95 19.1 66.5 40 5.4 41.7
23:00 1016 30 845 24.95 19.2 66.5 40 5.6 42
23:05 1016 30 845 24.95 19.2 66.6 40 5.3 41.5
23:10 1016 30 845 24.95 19 66.3 44 6.7 44.1
23:15 1016 30 845 24.95 18.6 65.4 44 6.2 43.1
23:20 1016 30 845 24.95 18.2 64.7 44 5.7 42.3
23:25 1016 30 845 24.95 18.2 64.7 45 6 42.9
23:30 1016 30 845 24.95 17.8 64.1 49 7.2 45
23:35 1016 30 845 24.95 17.7 63.8 47 6.3 43.4
23:40 1016 30 845 24.95 17.4 63.3 49 6.5 43.7
23:45 1016 30 845 24.95 17 62.5 50 6.5 43.6
23:50 1016 30 845 24.95 16.6 61.9 50 6.4 43.5
23:55 1016 30 845 24.95 16.5 61.8 51 6.4 43.5
24:00 1016 30 845 24.95 16.3 61.3 52 6.6 43.9